Time;durP1;ratioP1;P1;durP2;ratioP2;P2;SDS_P1;SDS_P2;PMS_P1;PMS_P2;Temp;Humidity;BMP_temperature;BMP_pressure;BME280_temperature;BME280_humidity;BME280_pressure;Samples;Min_cycle;Max_cycle;Signal;HPM_P1;HPM_P2
2023/01/25 00:01:07;;;;;;;42.80;20.37;;;;;;;-0.39;87.58;102301.83;125288;1099;104389;-79
2023/01/25 00:03:38;;;;;;;40.97;19.97;;;;;;;-0.41;87.71;102303.34;124585;1099;104281;-79
2023/01/25 00:06:10;;;;;;;41.30;19.20;;;;;;;-0.41;87.93;102308.50;125241;1099;104172;-79
2023/01/25 00:08:41;;;;;;;40.10;19.40;;;;;;;-0.39;88.09;102306.98;124794;1099;104204;-79
2023/01/25 00:11:12;;;;;;;40.07;19.40;;;;;;;-0.39;87.50;102306.98;124650;1099;104235;-79
2023/01/25 00:13:44;;;;;;;41.23;19.27;;;;;;;-0.40;87.22;102303.51;124739;1099;101925;-79
2023/01/25 00:16:15;;;;;;;38.33;17.97;;;;;;;-0.38;88.28;102322.63;124633;1099;102090;-79
2023/01/25 00:18:46;;;;;;;41.37;20.90;;;;;;;-0.39;88.16;102310.51;125275;1099;104185;-78
2023/01/25 00:21:20;;;;;;;38.63;18.00;;;;;;;-0.41;87.76;102313.66;125203;1099;104210;-78
2023/01/25 00:23:52;;;;;;;41.92;19.95;;;;;;;-0.42;87.86;102309.23;125250;1099;104163;-79
2023/01/25 00:26:23;;;;;;;43.13;18.63;;;;;;;-0.42;87.84;102315.34;125244;1098;104185;-79
2023/01/25 00:28:56;;;;;;;43.10;20.00;;;;;;;-0.41;87.96;102305.92;125233;1098;102107;-79
2023/01/25 00:31:38;;;;;;;41.40;19.25;;;;;;;-0.43;87.57;102308.33;125129;1099;104227;-80
2023/01/25 00:34:37;;;;;;;43.60;19.03;;;;;;;-0.43;88.39;102305.75;125269;1099;101953;-79
2023/01/25 00:37:20;;;;;;;41.57;18.70;;;;;;;-0.42;88.19;102305.02;125228;1099;104251;-79
2023/01/25 00:39:52;;;;;;;40.80;19.50;;;;;;;-0.43;88.42;102310.91;125280;1099;103440;-79
2023/01/25 00:42:24;;;;;;;39.70;18.73;;;;;;;-0.44;88.54;102309.07;125292;1099;104197;-79
2023/01/25 00:44:55;;;;;;;43.67;19.13;;;;;;;-0.45;88.71;102301.16;125283;1099;104253;-79
2023/01/25 00:47:26;;;;;;;39.63;18.87;;;;;;;-0.43;87.68;102305.75;125146;1099;110077;-79
2023/01/25 00:49:57;;;;;;;37.77;17.47;;;;;;;-0.41;87.96;102300.77;124684;1099;102195;-79
2023/01/25 00:52:28;;;;;;;41.27;18.93;;;;;;;-0.41;87.67;102308.50;124763;1099;104386;-79
2023/01/25 00:55:00;;;;;;;44.87;19.47;;;;;;;-0.40;88.40;102300.92;124777;1099;104169;-79
2023/01/25 00:57:31;;;;;;;40.60;19.15;;;;;;;-0.41;88.32;102298.18;125228;1099;104256;-79
2023/01/25 01:00:03;;;;;;;43.13;19.70;;;;;;;-0.40;88.64;102295.77;124720;1099;104172;-79
2023/01/25 01:02:35;;;;;;;39.97;18.67;;;;;;;-0.41;88.05;102296.51;124790;1099;104230;-79
2023/01/25 01:05:07;;;;;;;37.63;17.83;;;;;;;-0.42;88.73;102296.34;124631;1099;104315;-79
2023/01/25 01:07:39;;;;;;;42.07;19.03;;;;;;;-0.43;88.32;102291.95;125313;1099;104165;-79
2023/01/25 01:10:11;;;;;;;43.37;18.93;;;;;;;-0.44;88.64;102293.59;125291;1098;104211;-79
2023/01/25 01:12:42;;;;;;;40.17;18.57;;;;;;;-0.44;88.44;102297.85;125239;1099;104258;-79
2023/01/25 01:15:14;;;;;;;40.00;19.23;;;;;;;-0.44;88.47;102293.59;125230;1099;102096;-79
2023/01/25 01:17:45;;;;;;;38.40;17.90;;;;;;;-0.43;88.27;102294.53;125163;1099;103347;-79
2023/01/25 01:20:17;;;;;;;39.50;19.43;;;;;;;-0.44;87.99;102291.02;125210;1099;103085;-79
2023/01/25 01:22:54;;;;;;;39.50;19.43;;;;;;;-0.44;88.72;102291.02;125304;1098;104175;-79
2023/01/25 01:25:25;;;;;;;40.10;18.60;;;;;;;-0.44;88.24;102293.59;125182;1099;102636;-79
2023/01/25 01:27:56;;;;;;;43.07;19.53;;;;;;;-0.44;88.44;102285.86;124757;1102;102028;-79
2023/01/25 01:30:27;;;;;;;37.37;17.10;;;;;;;-0.42;89.14;102286.96;125064;1099;101959;-79
2023/01/25 01:32:58;;;;;;;39.77;18.23;;;;;;;-0.42;88.56;102280.86;124613;1099;104185;-79
2023/01/25 01:35:32;;;;;;;40.77;19.43;;;;;;;-0.44;88.51;102283.28;124728;1099;104063;-79
2023/01/25 01:38:03;;;;;;;40.33;18.27;;;;;;;-0.44;88.93;102283.28;124669;1102;104261;-79
2023/01/25 01:40:34;;;;;;;41.77;18.50;;;;;;;-0.44;88.87;102279.80;125184;1099;104172;-79
2023/01/25 01:43:15;;;;;;;39.93;19.00;;;;;;;-0.45;89.35;102272.80;125274;1098;101973;-79
2023/01/25 01:45:57;;;;;;;44.13;18.40;;;;;;;-0.45;88.92;102271.16;124608;1099;101867;-79
2023/01/25 01:48:38;;;;;;;38.40;17.53;;;;;;;-0.45;88.85;102271.16;124743;1099;104335;-79
2023/01/25 01:51:17;;;;;;;38.45;18.00;;;;;;;-0.45;88.94;102265.06;124785;1099;104223;-79
2023/01/25 01:53:54;;;;;;;41.03;19.17;;;;;;;-0.44;88.61;102267.80;124853;1099;102419;-79
2023/01/25 01:56:31;;;;;;;42.87;20.50;;;;;;;-0.43;88.60;102263.58;124758;1099;104336;-79
2023/01/25 01:59:05;;;;;;;43.27;19.80;;;;;;;-0.41;89.22;102268.13;124781;1099;107118;-79
2023/01/25 02:01:38;;;;;;;42.13;19.43;;;;;;;-0.42;89.11;102263.75;124736;1099;102741;-79
2023/01/25 02:04:10;;;;;;;44.33;19.90;;;;;;;-0.40;89.13;102259.66;124769;1099;101906;-79
2023/01/25 02:06:47;;;;;;;40.43;18.30;;;;;;;-0.40;89.31;102253.59;124615;1102;101917;-78
2023/01/25 02:09:23;;;;;;;43.83;20.00;;;;;;;-0.42;88.88;102255.08;124779;1099;117792;-79
2023/01/25 02:11:56;;;;;;;42.13;19.27;;;;;;;-0.42;89.21;102258.59;125212;1099;104297;-79
2023/01/25 02:14:29;;;;;;;45.33;19.87;;;;;;;-0.41;89.43;102255.23;125301;1098;101871;-80
2023/01/25 02:17:01;;;;;;;44.00;20.67;;;;;;;-0.44;89.43;102254.91;125256;1099;104224;-79
2023/01/25 02:19:43;;;;;;;42.90;19.93;;;;;;;-0.44;89.63;102256.58;125265;1099;102167;-81
2023/01/25 02:22:22;;;;;;;35.87;17.03;;;;;;;-0.44;89.85;102257.48;124732;1098;104224;-79
2023/01/25 02:25:03;;;;;;;41.03;19.60;;;;;;;-0.46;89.33;102248.68;125129;1099;102079;-79
2023/01/25 02:27:39;;;;;;;43.77;18.93;;;;;;;-0.45;89.70;102254.74;125246;1099;101900;-79
2023/01/25 02:30:12;;;;;;;45.10;20.73;;;;;;;-0.46;89.55;102250.36;125149;1099;104192;-79
2023/01/25 02:32:43;;;;;;;42.70;18.85;;;;;;;-0.46;89.13;102243.52;125269;1099;101823;-79
2023/01/25 02:35:21;;;;;;;44.30;21.07;;;;;;;-0.46;89.22;102238.36;125214;1099;104182;-78
2023/01/25 02:37:53;;;;;;;45.27;20.33;;;;;;;-0.44;89.06;102243.69;124675;1099;104169;-79
2023/01/25 02:40:25;;;;;;;41.13;20.07;;;;;;;-0.45;89.05;102235.05;125200;1099;104249;-79
2023/01/25 02:42:56;;;;;;;41.43;19.13;;;;;;;-0.42;89.29;102244.76;124735;1099;104169;-79
2023/01/25 02:45:30;;;;;;;40.33;18.47;;;;;;;-0.43;89.27;102238.69;125165;1099;102096;-79
2023/01/25 02:48:01;;;;;;;45.48;19.85;;;;;;;-0.44;89.25;102239.43;125168;1099;104185;-79
2023/01/25 02:50:33;;;;;;;44.20;19.53;;;;;;;-0.43;89.94;102237.79;124571;1100;101986;-79
2023/01/25 02:53:05;;;;;;;43.50;19.65;;;;;;;-0.44;90.13;102234.27;124685;1099;104064;-79
2023/01/25 02:55:36;;;;;;;42.47;19.53;;;;;;;-0.45;90.32;102240.20;124627;1099;102265;-79
2023/01/25 02:58:08;;;;;;;41.33;19.83;;;;;;;-0.46;89.90;102228.05;125258;1099;101875;-79
2023/01/25 03:00:39;;;;;;;42.30;19.63;;;;;;;-0.48;89.87;102234.72;124737;1099;104815;-79
2023/01/25 03:03:10;;;;;;;44.53;21.00;;;;;;;-0.49;89.75;102231.97;125305;1099;104175;-79
2023/01/25 03:05:41;;;;;;;44.30;20.37;;;;;;;-0.50;89.97;102225.88;125232;1098;102068;-79
2023/01/25 03:08:13;;;;;;;42.73;19.77;;;;;;;-0.45;90.22;102232.47;125249;1099;104326;-80
2023/01/25 03:10:45;;;;;;;47.07;21.33;;;;;;;-0.41;89.66;102233.70;124686;1099;104242;-79
2023/01/25 03:13:16;;;;;;;47.50;21.67;;;;;;;-0.40;89.75;102228.70;125271;1099;104434;-79
2023/01/25 03:15:47;;;;;;;47.67;20.37;;;;;;;-0.40;90.32;102228.70;125209;1099;102089;-79
2023/01/25 03:18:19;;;;;;;48.00;21.17;;;;;;;-0.38;90.09;102228.87;124658;1099;104215;-79
2023/01/25 03:20:51;;;;;;;44.23;19.90;;;;;;;-0.35;90.13;102228.30;124683;1099;109470;-77
2023/01/25 03:23:23;;;;;;;41.50;20.60;;;;;;;-0.35;89.31;102225.72;124752;1099;102123;-79
2023/01/25 03:25:55;;;;;;;45.20;19.63;;;;;;;-0.37;90.01;102223.88;124764;1099;104389;-79
2023/01/25 03:28:26;;;;;;;47.10;21.47;;;;;;;-0.35;89.73;102225.72;124653;1099;101931;-78
2023/01/25 03:30:58;;;;;;;47.90;22.47;;;;;;;-0.35;89.68;102218.88;124802;1102;102472;-79
2023/01/25 03:33:29;;;;;;;44.97;20.13;;;;;;;-0.34;89.47;102218.14;125205;1099;104169;-79
2023/01/25 03:36:01;;;;;;;45.97;21.17;;;;;;;-0.34;90.02;102212.05;125200;1099;101878;-79
2023/01/25 03:38:33;;;;;;;41.50;19.80;;;;;;;-0.36;90.24;102219.63;125311;1098;102346;-79
2023/01/25 03:41:06;;;;;;;48.37;21.37;;;;;;;-0.35;89.63;102220.55;124762;1102;107600;-79
2023/01/25 03:43:38;;;;;;;;;;;;;;;-0.36;89.63;102214.46;125257;1099;103126;-79
2023/01/25 03:46:09;;;;;;;42.53;19.50;;;;;;;-0.40;90.33;102215.81;124608;1099;104268;-79
2023/01/25 03:48:42;;;;;;;43.33;20.20;;;;;;;-0.41;89.93;102228.55;124746;1102;101897;-79
2023/01/25 03:51:13;;;;;;;47.00;21.40;;;;;;;-0.43;89.89;102220.64;124646;1099;104345;-79
2023/01/25 03:53:45;;;;;;;46.27;20.70;;;;;;;-0.45;89.86;102222.15;125125;1099;104321;-78
2023/01/25 03:56:19;;;;;;;;;;;;;;;-0.48;90.71;102220.88;125231;1099;101906;-79
2023/01/25 03:59:33;;;;;;;47.37;21.23;;;;;;;-0.48;90.04;102213.14;125169;1099;102431;-79
2023/01/25 04:02:05;;;;;;;45.20;21.40;;;;;;;-0.48;90.62;102216.66;125214;1099;104245;-79
2023/01/25 04:04:36;;;;;;;46.07;20.97;;;;;;;-0.48;90.04;102216.66;124701;1099;102131;-79
2023/01/25 04:07:08;;;;;;;45.85;21.30;;;;;;;-0.47;90.98;102210.73;125200;1099;104238;-77
2023/01/25 04:09:39;;;;;;;44.33;20.30;;;;;;;-0.48;90.28;102218.30;125164;1099;101813;-79
2023/01/25 04:12:11;;;;;;;47.23;21.87;;;;;;;-0.49;90.19;102217.40;125223;1099;104277;-79
2023/01/25 04:14:43;;;;;;;44.50;20.73;;;;;;;-0.47;90.04;102223.63;125272;1098;104105;-79
2023/01/25 04:17:18;;;;;;;49.30;22.47;;;;;;;-0.46;89.98;102228.05;124767;1099;104201;-79
2023/01/25 04:19:56;;;;;;;46.23;20.70;;;;;;;-0.46;90.67;102222.89;124971;1098;104243;-78
2023/01/25 04:22:31;;;;;;;50.53;22.77;;;;;;;-0.47;90.16;102220.14;124769;1099;104288;-79
2023/01/25 04:25:02;;;;;;;52.47;22.77;;;;;;;-0.48;90.48;102216.66;124819;1099;104280;-79
2023/01/25 04:27:34;;;;;;;50.57;22.77;;;;;;;-0.49;89.89;102217.40;124888;1099;102123;-79
2023/01/25 04:30:15;;;;;;;45.40;20.97;;;;;;;-0.48;89.84;102224.40;124781;1099;104172;-80
2023/01/25 04:32:48;;;;;;;46.80;21.10;;;;;;;-0.46;90.83;102219.41;124741;1099;104166;-79
2023/01/25 04:35:36;;;;;;;45.57;20.20;;;;;;;-0.45;90.11;102216.05;124812;1099;104255;-79
2023/01/25 04:38:23;;;;;;;45.55;20.57;;;;;;;-0.45;90.80;102214.41;125488;1099;104203;-79
2023/01/25 04:41:04;;;;;;;48.03;22.13;;;;;;;-0.42;90.42;102217.32;125007;1099;102122;-79
2023/01/25 04:43:47;;;;;;;46.00;21.83;;;;;;;-0.42;90.72;102219.90;124830;1099;104249;-80
2023/01/25 04:46:18;;;;;;;46.73;22.27;;;;;;;-0.42;90.25;102217.32;124758;1099;104226;-80
2023/01/25 04:48:50;;;;;;;51.77;21.53;;;;;;;-0.42;90.63;102227.64;124909;1099;101856;-80
2023/01/25 04:51:21;;;;;;;45.50;22.03;;;;;;;-0.42;90.82;102226.70;124832;1099;103528;-80
2023/01/25 04:53:53;;;;;;;47.40;21.13;;;;;;;-0.39;90.92;102229.61;124940;1102;104606;-79
2023/01/25 04:56:24;;;;;;;51.33;22.27;;;;;;;-0.40;90.66;102223.55;124834;1102;104210;-80
2023/01/25 04:58:57;;;;;;;46.43;21.40;;;;;;;-0.40;90.72;102227.80;125260;1099;101861;-80
2023/01/25 05:01:29;;;;;;;45.63;21.27;;;;;;;-0.41;90.34;102225.96;124851;1099;102064;-79
2023/01/25 05:04:00;;;;;;;48.30;21.90;;;;;;;-0.41;90.33;102225.96;124898;1099;102147;-80
2023/01/25 05:06:37;;;;;;;48.53;22.10;;;;;;;-0.39;90.49;102229.61;124824;1099;102115;-80
2023/01/25 05:09:09;;;;;;;49.73;22.13;;;;;;;-0.37;90.28;102230.71;125416;1099;102090;-79
2023/01/25 05:11:40;;;;;;;49.67;22.57;;;;;;;-0.39;90.67;102227.97;125205;1098;102025;-79
2023/01/25 05:14:16;;;;;;;48.67;21.40;;;;;;;-0.39;90.93;102235.70;124931;1099;101890;-80
2023/01/25 05:16:49;;;;;;;47.03;22.57;;;;;;;-0.37;90.55;102230.71;124725;1099;104357;-80
2023/01/25 05:19:20;;;;;;;52.27;22.10;;;;;;;-0.37;90.19;102236.77;124713;1099;101991;-81
2023/01/25 05:21:59;;;;;;;47.87;22.13;;;;;;;-0.37;90.93;102236.77;125104;1099;104226;-80
2023/01/25 05:24:47;;;;;;;52.20;22.93;;;;;;;-0.37;90.74;102239.35;124471;1099;103157;-79
2023/01/25 05:27:21;;;;;;;47.50;21.15;;;;;;;-0.39;90.46;102243.44;124561;1099;104095;-79
2023/01/25 05:29:58;;;;;;;51.87;21.63;;;;;;;-0.38;90.45;102247.83;124991;1099;104173;-80
2023/01/25 05:32:56;;;;;;;49.10;22.33;;;;;;;-0.35;90.72;102246.35;124489;1099;104176;-78
2023/01/25 05:35:28;;;;;;;47.27;21.97;;;;;;;-0.35;90.40;102248.94;124352;1102;104307;-78
2023/01/25 05:38:00;;;;;;;51.50;21.90;;;;;;;-0.33;90.60;102250.00;124551;1099;102454;-78
2023/01/25 05:40:31;;;;;;;49.20;21.93;;;;;;;-0.34;90.74;102255.90;124297;1099;104124;-78
2023/01/25 05:43:04;;;;;;;52.25;22.35;;;;;;;-0.35;91.39;102251.52;124329;1099;104182;-77
2023/01/25 05:45:35;;;;;;;54.80;22.00;;;;;;;-0.37;90.68;102257.41;124341;1099;104181;-78
2023/01/25 05:48:07;;;;;;;53.63;22.70;;;;;;;-0.37;91.17;102252.25;124439;1099;102295;-78
2023/01/25 05:50:39;;;;;;;51.27;23.37;;;;;;;-0.35;90.91;102256.67;124388;1099;104223;-78
2023/01/25 05:53:14;;;;;;;56.37;24.63;;;;;;;-0.32;90.78;102255.33;124580;1098;105620;-79
2023/01/25 05:55:45;;;;;;;53.13;22.87;;;;;;;-0.25;91.71;102256.89;124270;1098;104310;-78
2023/01/25 05:58:19;;;;;;;54.00;23.65;;;;;;;-0.23;91.26;102252.83;124619;1099;104246;-78
2023/01/25 06:00:51;;;;;;;54.87;23.80;;;;;;;-0.22;91.00;102259.80;124531;1099;104402;-78
2023/01/25 06:03:29;;;;;;;56.10;24.47;;;;;;;-0.25;90.88;102264.63;124337;1101;104290;-78
2023/01/25 06:06:05;;;;;;;54.07;23.37;;;;;;;-0.22;91.25;102264.95;124471;1099;104306;-79
2023/01/25 06:08:37;;;;;;;55.57;23.47;;;;;;;-0.20;91.66;102255.73;124352;1099;104176;-78
2023/01/25 06:11:11;;;;;;;55.88;24.52;;;;;;;-0.20;91.39;102266.06;115795;1099;10000980;-77
2023/01/25 06:13:47;;;;;;;50.75;22.05;;;;;;;-0.15;91.74;102264.88;124424;1099;104268;-77
2023/01/25 06:16:19;;;;;;;53.67;23.60;;;;;;;-0.17;90.96;102266.39;124420;1099;104290;-79
2023/01/25 06:19:09;;;;;;;47.93;20.07;;;;;;;-0.16;90.99;102265.61;124384;1099;104246;-77
2023/01/25 06:21:51;;;;;;;56.20;23.93;;;;;;;-0.18;90.54;102256.80;124481;1099;104182;-79
2023/01/25 06:24:22;;;;;;;54.10;22.70;;;;;;;-0.14;91.65;102258.97;125087;1099;118837;-78
2023/01/25 06:26:54;;;;;;;56.00;23.67;;;;;;;-0.06;91.46;102258.11;125136;1099;103917;-79
2023/01/25 06:29:25;;;;;;;49.93;22.43;;;;;;;-0.03;92.07;102258.44;124737;1099;104175;-77
2023/01/25 06:31:57;;;;;;;56.90;23.53;;;;;;;-0.07;91.82;102256.27;124832;1099;104204;-78
2023/01/25 06:34:29;;;;;;;54.53;24.70;;;;;;;-0.10;91.57;102260.20;124547;1099;104240;-78
2023/01/25 06:37:01;;;;;;;58.00;24.90;;;;;;;-0.12;91.23;102260.04;124583;1099;104191;-78
2023/01/25 06:39:32;;;;;;;57.63;23.13;;;;;;;-0.13;91.26;102262.45;124625;1099;102450;-79
2023/01/25 06:42:03;;;;;;;55.50;23.53;;;;;;;-0.11;91.23;102263.52;124728;1099;104273;-77
2023/01/25 06:44:35;;;;;;;58.03;24.67;;;;;;;-0.12;91.65;102272.94;125376;1099;104239;-77
2023/01/25 06:47:19;;;;;;;53.55;24.40;;;;;;;-0.12;91.45;102266.88;125466;1099;102023;-77
2023/01/25 06:49:52;;;;;;;57.87;24.97;;;;;;;-0.10;90.92;102271.43;125506;1099;103141;-78
2023/01/25 06:52:23;;;;;;;58.30;24.10;;;;;;;-0.10;90.98;102263.69;125367;1099;104284;-78
2023/01/25 06:54:55;;;;;;;57.17;24.83;;;;;;;-0.08;91.92;102264.79;125655;1098;104182;-77
2023/01/25 06:57:28;;;;;;;54.97;23.67;;;;;;;-0.06;91.32;102265.86;125459;1099;102039;-77
2023/01/25 06:59:59;;;;;;;55.57;25.10;;;;;;;-0.06;91.67;102263.27;125371;1099;102950;-78
2023/01/25 07:02:33;;;;;;;54.00;24.67;;;;;;;-0.02;90.96;102264.50;125224;1099;104264;-78
2023/01/25 07:05:04;;;;;;;57.73;25.70;;;;;;;0.00;91.42;102265.60;125609;1099;104255;-78
2023/01/25 07:07:36;;;;;;;54.27;23.80;;;;;;;0.00;91.80;102268.19;125760;1099;102258;-78
2023/01/25 07:10:14;;;;;;;60.83;26.60;;;;;;;-0.01;91.06;102266.34;125193;1099;102976;-77
2023/01/25 07:12:48;;;;;;;59.10;27.10;;;;;;;-0.02;92.00;102264.50;125439;1098;104230;-77
2023/01/25 07:15:22;;;;;;;57.63;25.67;;;;;;;-0.03;91.24;102267.86;125320;1099;102917;-77
2023/01/25 07:17:54;;;;;;;58.63;26.60;;;;;;;-0.03;91.18;102261.02;125361;1099;103594;-76
2023/01/25 07:20:27;;;;;;;56.27;27.20;;;;;;;0.05;91.64;102260.90;125305;1099;103157;-77
2023/01/25 07:23:01;;;;;;;57.30;25.93;;;;;;;0.06;90.80;102258.48;125188;1099;102477;-75
2023/01/25 07:25:32;;;;;;;54.10;25.15;;;;;;;-0.02;91.44;102255.12;125368;1099;104114;-75
2023/01/25 07:28:04;;;;;;;57.50;26.50;;;;;;;-0.06;91.33;102247.79;125230;1099;102929;-77
2023/01/25 07:30:35;;;;;;;58.00;24.10;;;;;;;-0.07;91.53;102251.11;125207;1098;102650;-76
2023/01/25 07:33:08;;;;;;;57.87;24.10;;;;;;;-0.11;91.44;102251.56;125302;1099;104178;-76
2023/01/25 07:35:39;;;;;;;55.53;23.70;;;;;;;-0.12;91.93;102251.39;125451;1099;102846;-77
2023/01/25 07:38:11;;;;;;;55.47;24.47;;;;;;;-0.09;92.12;102257.78;125162;1099;103385;-76
2023/01/25 07:40:51;;;;;;;60.47;27.00;;;;;;;-0.07;91.71;102247.63;125447;1098;102563;-76
2023/01/25 07:43:23;;;;;;;52.63;23.60;;;;;;;-0.06;91.40;102254.63;125386;1099;102192;-77
2023/01/25 07:46:14;;;;;;;65.72;27.22;;;;;;;-0.07;91.34;102255.37;125448;1099;104208;-76
2023/01/25 07:48:52;;;;;;;54.20;24.57;;;;;;;-0.03;92.13;102248.11;125481;1098;104194;-77
2023/01/25 07:51:25;;;;;;;57.77;25.63;;;;;;;0.02;92.00;102246.02;125370;1099;102281;-76
2023/01/25 07:53:59;;;;;;;58.47;26.33;;;;;;;0.03;91.57;102247.83;125386;1099;102131;-77
2023/01/25 07:56:39;;;;;;;52.83;24.27;;;;;;;0.08;91.71;102249.25;125462;1099;107770;-77
2023/01/25 07:59:13;;;;;;;57.73;26.50;;;;;;;0.09;91.66;102242.41;125566;1099;104179;-76
2023/01/25 08:01:46;;;;;;;54.23;25.83;;;;;;;0.15;91.79;102245.64;125140;1099;104255;-76
2023/01/25 08:04:17;;;;;;;56.53;26.07;;;;;;;0.24;91.45;102244.03;125474;1099;103188;-77
2023/01/25 08:06:52;;;;;;;53.43;25.80;;;;;;;0.32;92.26;102240.57;125126;1099;117810;-77
2023/01/25 08:09:24;;;;;;;55.57;24.47;;;;;;;0.41;91.64;102244.89;125433;1099;102983;-76
2023/01/25 08:11:56;;;;;;;55.27;25.13;;;;;;;0.39;91.52;102248.96;125229;1099;103616;-75
2023/01/25 08:14:29;;;;;;;56.83;26.37;;;;;;;0.30;91.00;102247.25;125392;1099;102045;-75
2023/01/25 08:17:03;;;;;;;54.93;25.27;;;;;;;0.27;91.04;102243.45;124880;1099;102539;-77
2023/01/25 08:19:36;;;;;;;54.90;25.37;;;;;;;0.24;91.32;102243.13;125434;1099;102882;-77
2023/01/25 08:22:12;;;;;;;55.50;25.43;;;;;;;0.22;91.59;102248.13;125245;1099;104235;-76
2023/01/25 08:24:48;;;;;;;57.63;25.77;;;;;;;0.23;91.39;102249.94;125161;1099;104176;-75
2023/01/25 08:27:21;;;;;;;54.33;25.13;;;;;;;0.24;91.75;102241.45;125144;1099;109970;-76
2023/01/25 08:29:55;;;;;;;53.30;24.18;;;;;;;0.26;91.71;102249.35;125229;1099;102114;-76
2023/01/25 08:32:34;;;;;;;59.10;24.73;;;;;;;0.25;91.77;102238.12;124946;1102;103049;-77
2023/01/25 08:35:08;;;;;;;56.83;24.93;;;;;;;0.26;92.12;102239.92;124761;1099;101970;-77
2023/01/25 08:37:43;;;;;;;52.83;22.50;;;;;;;0.26;91.40;102239.02;124809;1099;102361;-76
2023/01/25 08:40:15;;;;;;;53.87;24.67;;;;;;;0.30;92.01;102233.44;124763;1099;102764;-77
2023/01/25 08:42:51;;;;;;;53.33;24.67;;;;;;;0.37;92.13;102241.05;124808;1100;103901;-77
2023/01/25 08:45:24;;;;;;;55.40;24.20;;;;;;;0.39;92.03;102234.40;124838;1099;104239;-77
2023/01/25 08:47:58;;;;;;;56.50;25.43;;;;;;;0.37;91.56;102229.82;124768;1099;104203;-77
2023/01/25 08:50:31;;;;;;;53.13;23.10;;;;;;;0.39;91.87;102230.88;124829;1099;102263;-77
2023/01/25 08:53:07;;;;;;;55.33;26.77;;;;;;;0.35;91.63;102230.56;124694;1099;103171;-78
2023/01/25 08:55:41;;;;;;;57.77;27.03;;;;;;;0.30;91.75;102221.43;124768;1099;104179;-76
2023/01/25 08:58:23;;;;;;;58.40;27.07;;;;;;;0.46;91.93;102225.61;124763;1102;104084;-77
2023/01/25 09:00:59;;;;;;;55.37;25.73;;;;;;;0.50;91.76;102222.60;125100;1099;102645;-76
2023/01/25 09:03:38;;;;;;;63.77;27.97;;;;;;;0.49;91.52;102226.83;125095;1099;103450;-78
2023/01/25 09:06:12;;;;;;;62.80;28.20;;;;;;;0.46;91.66;102223.03;124899;1099;104172;-77
2023/01/25 09:08:47;;;;;;;54.03;25.67;;;;;;;0.49;91.69;102220.77;126211;1098;101997;-77
2023/01/25 09:11:21;;;;;;;57.50;26.43;;;;;;;0.45;91.74;102221.19;125656;1102;105507;-77
2023/01/25 09:13:59;;;;;;;56.88;26.97;;;;;;;0.41;91.44;102213.90;124996;1099;102907;-76
2023/01/25 09:16:39;;;;;;;67.53;30.83;;;;;;;0.41;91.85;102212.22;124949;1102;103192;-78
2023/01/25 09:19:17;;;;;;;58.53;28.30;;;;;;;0.42;91.52;102214.06;124935;1099;102606;-79
2023/01/25 09:21:50;;;;;;;87.47;31.00;;;;;;;0.39;92.33;102213.73;124747;1103;103072;-75
2023/01/25 09:24:22;;;;;;;62.43;30.33;;;;;;;0.37;92.30;102207.48;124891;1099;102277;-77
2023/01/25 09:27:19;;;;;;;67.60;31.80;;;;;;;0.38;91.83;102204.16;124865;1099;103243;-77
2023/01/25 09:29:57;;;;;;;61.40;28.33;;;;;;;0.46;92.44;102205.84;124767;1099;102331;-76
2023/01/25 09:32:30;;;;;;;58.63;28.27;;;;;;;0.50;92.06;102200.26;125144;1098;103059;-78
2023/01/25 09:35:05;;;;;;;61.13;28.40;;;;;;;0.54;92.14;102199.80;124927;1099;102569;-77
2023/01/25 09:37:40;;;;;;;60.30;29.50;;;;;;;0.52;91.68;102197.83;125289;1099;102071;-76
2023/01/25 09:40:25;;;;;;;58.10;25.63;;;;;;;0.50;91.29;102196.77;125110;1099;107381;-78
2023/01/25 09:43:16;;;;;;;53.03;23.63;;;;;;;0.46;91.24;102194.62;124970;1099;103002;-76
2023/01/25 09:45:47;;;;;;;55.23;25.03;;;;;;;0.42;91.30;102188.23;125082;1099;104261;-76
2023/01/25 09:48:30;;;;;;;48.10;23.37;;;;;;;0.40;91.04;102188.81;125220;1098;102608;-77
2023/01/25 09:51:18;;;;;;;55.43;22.40;;;;;;;0.41;91.09;102175.16;125514;1099;104245;-76
2023/01/25 09:53:57;;;;;;;53.93;22.23;;;;;;;0.39;91.36;102176.65;125420;1098;104258;-76
2023/01/25 09:56:36;;;;;;;50.20;21.13;;;;;;;0.38;91.21;102169.67;125397;1099;102189;-75
2023/01/25 09:59:16;;;;;;;47.23;20.17;;;;;;;0.34;91.17;102160.67;125207;1099;104181;-76
2023/01/25 10:01:55;;;;;;;46.03;20.23;;;;;;;0.32;90.50;102163.09;125260;1099;104241;-76
2023/01/25 10:04:40;;;;;;;48.13;21.43;;;;;;;0.32;90.77;102151.87;125115;1099;103547;-76
2023/01/25 10:07:25;;;;;;;47.63;21.10;;;;;;;0.40;91.45;102155.24;124952;1099;103721;-75
2023/01/25 10:13:18;;;;;;;48.30;20.07;;;;;;;0.52;91.23;102144.48;125402;1099;103435;-76
2023/01/25 10:16:08;;;;;;;44.60;19.90;;;;;;;0.49;90.61;102135.52;125360;1099;102561;-76
2023/01/25 10:19:09;;;;;;;46.63;19.93;;;;;;;0.48;90.92;102144.02;125499;1099;103030;-77
2023/01/25 10:22:12;;;;;;;45.20;18.37;;;;;;;0.46;90.40;102132.63;124969;1099;103214;-80
2023/01/25 10:25:25;;;;;;;47.85;19.25;;;;;;;0.43;90.63;102127.15;125320;1099;103206;-76
2023/01/25 10:28:30;;;;;;;46.17;19.23;;;;;;;0.46;90.26;102127.46;125802;1098;104197;-77
2023/01/25 10:31:30;;;;;;;46.67;18.30;;;;;;;0.50;90.48;102127.03;125649;1098;102554;-77
2023/01/25 10:34:19;;;;;;;40.77;18.07;;;;;;;0.56;91.01;102127.63;125564;1099;104023;-77
2023/01/25 10:36:54;;;;;;;45.17;19.57;;;;;;;0.57;90.80;102119.13;125400;1099;102386;-78
2023/01/25 10:39:26;;;;;;;41.93;17.87;;;;;;;0.63;90.64;102113.68;125436;1099;104175;-78
2023/01/25 10:42:03;;;;;;;49.33;20.63;;;;;;;0.64;90.48;102113.84;125338;1099;102698;-78
2023/01/25 10:44:38;;;;;;;41.77;19.10;;;;;;;0.66;90.71;102113.99;125114;1100;104265;-77
2023/01/25 10:47:33;;;;;;;48.17;20.37;;;;;;;0.63;89.76;102112.00;125315;1098;102468;-78
2023/01/25 10:50:30;;;;;;;48.37;20.77;;;;;;;0.60;90.49;102111.69;125978;1098;102060;-78
2023/01/25 10:53:20;;;;;;;39.90;18.23;;;;;;;0.59;90.17;102101.20;125084;1099;104213;-77
2023/01/25 10:56:22;;;;;;;40.10;18.17;;;;;;;0.60;90.18;102100.45;125067;1099;103477;-78
2023/01/25 10:59:16;;;;;;;45.63;20.43;;;;;;;0.60;89.81;102096.19;125654;1098;104316;-78
2023/01/25 11:01:50;;;;;;;46.57;18.57;;;;;;;0.56;89.82;102094.04;125585;1100;118793;-78
2023/01/25 11:04:38;;;;;;;41.93;18.87;;;;;;;0.56;89.86;102093.14;125626;1099;102255;-78
2023/01/25 11:07:29;;;;;;;42.45;18.10;;;;;;;0.60;89.79;102093.61;125798;1099;101933;-79
2023/01/25 11:10:01;;;;;;;38.47;16.23;;;;;;;0.60;89.77;102084.95;125228;1099;104171;-79
2023/01/25 11:12:35;;;;;;;37.67;16.50;;;;;;;0.63;89.78;102085.27;125336;1100;102667;-78
2023/01/25 11:15:27;;;;;;;40.38;17.32;;;;;;;0.64;89.85;102076.73;125209;1099;103144;-78
2023/01/25 11:18:13;;;;;;;39.33;15.77;;;;;;;0.62;88.69;102083.42;125555;1098;103526;-79
2023/01/25 11:20:45;;;;;;;38.10;16.40;;;;;;;0.61;89.35;102082.52;125459;1098;102630;-77
2023/01/25 11:23:25;;;;;;;38.30;16.03;;;;;;;0.60;89.21;102075.52;125421;1099;102128;-78
2023/01/25 11:26:14;;;;;;;38.23;17.33;;;;;;;0.61;89.34;102086.75;125552;1099;103242;-77
2023/01/25 11:28:49;;;;;;;44.97;19.13;;;;;;;0.67;89.76;102077.98;116754;1099;10000866;-78
2023/01/25 11:31:24;;;;;;;42.53;18.90;;;;;;;0.70;88.62;102080.87;125223;1099;102348;-77
2023/01/25 11:34:01;;;;;;;43.85;17.85;;;;;;;0.71;88.39;102074.02;125240;1099;102818;-77
2023/01/25 11:37:20;;;;;;;41.80;17.77;;;;;;;0.75;88.80;102070.06;125771;1099;103258;-77
2023/01/25 11:40:11;;;;;;;38.97;16.67;;;;;;;0.87;89.85;102074.80;125734;1099;102196;-78